sensor_id;sensor_type;location;lat;lon;timestamp;pressure;altitude;pressure_sealevel;temperature;humidity
56006;BME280;41888;44.696;10.522;2023-05-24T00:01:20;100193.03;;;17.65;100.00
56006;BME280;41888;44.696;10.522;2023-05-24T00:03:53;100195.03;;;17.53;100.00
56006;BME280;41888;44.696;10.522;2023-05-24T00:06:24;100201.19;;;17.49;100.00
56006;BME280;41888;44.696;10.522;2023-05-24T00:08:52;100210.84;;;17.45;100.00
56006;BME280;41888;44.696;10.522;2023-05-24T00:11:19;100209.69;;;17.41;100.00
56006;BME280;41888;44.696;10.522;2023-05-24T00:13:46;100208.72;;;17.52;100.00
56006;BME280;41888;44.696;10.522;2023-05-24T00:16:12;100220.47;;;17.67;100.00
56006;BME280;41888;44.696;10.522;2023-05-24T00:18:38;100226.97;;;17.45;100.00
56006;BME280;41888;44.696;10.522;2023-05-24T00:21:06;100209.41;;;17.37;100.00
56006;BME280;41888;44.696;10.522;2023-05-24T00:23:33;100210.28;;;17.43;100.00
56006;BME280;41888;44.696;10.522;2023-05-24T00:26:00;100205.38;;;17.40;100.00
56006;BME280;41888;44.696;10.522;2023-05-24T00:28:29;100227.47;;;17.42;100.00
56006;BME280;41888;44.696;10.522;2023-05-24T00:30:59;100229.59;;;17.40;100.00
56006;BME280;41888;44.696;10.522;2023-05-24T00:33:25;100234.38;;;17.33;100.00
56006;BME280;41888;44.696;10.522;2023-05-24T00:35:53;100245.56;;;17.24;100.00
56006;BME280;41888;44.696;10.522;2023-05-24T00:38:27;100238.13;;;17.31;100.00
56006;BME280;41888;44.696;10.522;2023-05-24T00:40:54;100244.31;;;17.32;100.00
56006;BME280;41888;44.696;10.522;2023-05-24T00:43:26;100244.66;;;17.41;100.00
56006;BME280;41888;44.696;10.522;2023-05-24T00:46:13;100240.97;;;17.47;100.00
56006;BME280;41888;44.696;10.522;2023-05-24T00:48:40;100240.97;;;17.47;100.00
56006;BME280;41888;44.696;10.522;2023-05-24T00:51:07;100230.78;;;17.49;100.00
56006;BME280;41888;44.696;10.522;2023-05-24T00:53:35;100236.97;;;17.49;100.00
56006;BME280;41888;44.696;10.522;2023-05-24T00:56:02;100237.25;;;17.53;100.00
56006;BME280;41888;44.696;10.522;2023-05-24T00:58:30;100232.41;;;17.50;100.00
56006;BME280;41888;44.696;10.522;2023-05-24T01:01:01;100226.63;;;17.63;100.00
56006;BME280;41888;44.696;10.522;2023-05-24T01:03:28;100224.78;;;17.68;100.00
56006;BME280;41888;44.696;10.522;2023-05-24T01:05:59;100221.41;;;17.56;100.00
56006;BME280;41888;44.696;10.522;2023-05-24T01:11:20;100227.19;;;17.65;100.00
56006;BME280;41888;44.696;10.522;2023-05-24T01:16:52;100220.88;;;17.27;100.00
56006;BME280;41888;44.696;10.522;2023-05-24T01:20:06;100218.28;;;17.11;100.00
56006;BME280;41888;44.696;10.522;2023-05-24T01:22:27;100218.41;;;16.99;100.00
56006;BME280;41888;44.696;10.522;2023-05-24T01:27:39;100209.44;;;16.67;100.00
56006;BME280;41888;44.696;10.522;2023-05-24T01:30:08;100205.69;;;16.68;100.00
56006;BME280;41888;44.696;10.522;2023-05-24T01:32:34;100215.38;;;16.69;100.00
56006;BME280;41888;44.696;10.522;2023-05-24T01:35:00;100217.69;;;16.43;100.00
56006;BME280;41888;44.696;10.522;2023-05-24T01:37:26;100213.50;;;16.31;100.00
56006;BME280;41888;44.696;10.522;2023-05-24T01:39:53;100217.88;;;16.37;100.00
56006;BME280;41888;44.696;10.522;2023-05-24T01:52:49;100210.69;;;16.42;100.00
56006;BME280;41888;44.696;10.522;2023-05-24T01:55:17;100210.25;;;16.51;100.00
56006;BME280;41888;44.696;10.522;2023-05-24T01:57:46;100205.13;;;16.27;100.00
56006;BME280;41888;44.696;10.522;2023-05-24T02:00:17;100201.69;;;16.32;100.00
56006;BME280;41888;44.696;10.522;2023-05-24T02:02:44;100203.50;;;16.26;100.00
56006;BME280;41888;44.696;10.522;2023-05-24T02:05:11;100202.50;;;16.32;100.00
56006;BME280;41888;44.696;10.522;2023-05-24T02:07:37;100207.78;;;16.44;100.00
56006;BME280;41888;44.696;10.522;2023-05-24T02:10:04;100210.25;;;16.51;100.00
56006;BME280;41888;44.696;10.522;2023-05-24T02:12:30;100199.50;;;16.51;100.00
56006;BME280;41888;44.696;10.522;2023-05-24T02:14:57;100204.59;;;16.47;100.00
56006;BME280;41888;44.696;10.522;2023-05-24T02:17:23;100202.72;;;16.47;100.00
56006;BME280;41888;44.696;10.522;2023-05-24T02:19:52;100201.97;;;16.52;100.00
56006;BME280;41888;44.696;10.522;2023-05-24T02:22:18;100200.66;;;16.55;100.00
56006;BME280;41888;44.696;10.522;2023-05-24T02:24:47;100196.91;;;16.56;100.00
56006;BME280;41888;44.696;10.522;2023-05-24T02:27:13;100195.03;;;16.56;100.00
56006;BME280;41888;44.696;10.522;2023-05-24T02:29:39;100204.56;;;16.64;100.00
56006;BME280;41888;44.696;10.522;2023-05-24T02:32:07;100202.94;;;16.63;100.00
56006;BME280;41888;44.696;10.522;2023-05-24T02:34:33;100197.09;;;16.71;100.00
56006;BME280;41888;44.696;10.522;2023-05-24T02:36:59;100205.16;;;16.71;100.00
56006;BME280;41888;44.696;10.522;2023-05-24T02:39:27;100196.44;;;16.59;100.00
56006;BME280;41888;44.696;10.522;2023-05-24T02:41:53;100190.69;;;16.72;100.00
56006;BME280;41888;44.696;10.522;2023-05-24T02:44:19;100191.31;;;16.79;100.00
56006;BME280;41888;44.696;10.522;2023-05-24T02:46:45;100193.25;;;16.83;100.00
56006;BME280;41888;44.696;10.522;2023-05-24T02:49:11;100188.13;;;16.82;100.00
56006;BME280;41888;44.696;10.522;2023-05-24T02:51:38;100188.38;;;16.80;100.00
56006;BME280;41888;44.696;10.522;2023-05-24T02:54:04;100188.44;;;16.85;100.00
56006;BME280;41888;44.696;10.522;2023-05-24T02:56:31;100184.41;;;16.88;100.00
56006;BME280;41888;44.696;10.522;2023-05-24T02:58:57;100178.22;;;16.87;100.00
56006;BME280;41888;44.696;10.522;2023-05-24T03:01:24;100175.97;;;17.01;100.00
56006;BME280;41888;44.696;10.522;2023-05-24T03:03:50;100174.25;;;16.90;100.00
56006;BME280;41888;44.696;10.522;2023-05-24T03:06:16;100184.31;;;16.78;100.00
56006;BME280;41888;44.696;10.522;2023-05-24T03:08:42;100182.00;;;16.86;100.00
56006;BME280;41888;44.696;10.522;2023-05-24T03:11:09;100180.63;;;16.84;100.00
56006;BME280;41888;44.696;10.522;2023-05-24T03:13:35;100175.25;;;16.62;100.00
56006;BME280;41888;44.696;10.522;2023-05-24T03:16:01;100186.66;;;16.53;100.00
56006;BME280;41888;44.696;10.522;2023-05-24T03:18:27;100184.66;;;16.43;100.00
56006;BME280;41888;44.696;10.522;2023-05-24T03:20:54;100186.53;;;16.42;100.00
56006;BME280;41888;44.696;10.522;2023-05-24T03:23:20;100188.78;;;16.51;100.00
56006;BME280;41888;44.696;10.522;2023-05-24T03:25:46;100190.28;;;16.41;100.00
56006;BME280;41888;44.696;10.522;2023-05-24T03:28:12;100185.47;;;16.43;100.00
56006;BME280;41888;44.696;10.522;2023-05-24T03:30:40;100196.63;;;16.35;100.00
56006;BME280;41888;44.696;10.522;2023-05-24T03:33:06;100193.41;;;16.33;100.00
56006;BME280;41888;44.696;10.522;2023-05-24T03:35:32;100204.75;;;16.40;100.00
56006;BME280;41888;44.696;10.522;2023-05-24T03:37:58;100211.59;;;16.48;100.00
56006;BME280;41888;44.696;10.522;2023-05-24T03:40:24;100209.44;;;16.50;100.00
56006;BME280;41888;44.696;10.522;2023-05-24T03:42:53;100210.75;;;16.64;100.00
56006;BME280;41888;44.696;10.522;2023-05-24T03:45:19;100203.84;;;16.52;100.00
56006;BME280;41888;44.696;10.522;2023-05-24T03:47:45;100204.56;;;16.64;100.00
56006;BME280;41888;44.696;10.522;2023-05-24T03:50:12;100207.84;;;16.49;100.00
56006;BME280;41888;44.696;10.522;2023-05-24T03:52:39;100206.81;;;16.33;100.00
56006;BME280;41888;44.696;10.522;2023-05-24T03:55:05;100205.88;;;16.44;100.00
56006;BME280;41888;44.696;10.522;2023-05-24T03:57:31;100203.69;;;16.41;100.00
56006;BME280;41888;44.696;10.522;2023-05-24T03:59:58;100206.03;;;16.16;100.00
56006;BME280;41888;44.696;10.522;2023-05-24T04:02:25;100208.63;;;16.28;100.00
56006;BME280;41888;44.696;10.522;2023-05-24T04:04:51;100212.03;;;16.23;100.00
56006;BME280;41888;44.696;10.522;2023-05-24T04:07:18;100211.13;;;16.34;100.00
56006;BME280;41888;44.696;10.522;2023-05-24T04:09:44;100210.88;;;16.36;100.00
56006;BME280;41888;44.696;10.522;2023-05-24T04:12:10;100212.81;;;16.40;100.00
56006;BME280;41888;44.696;10.522;2023-05-24T04:14:37;100212.88;;;16.45;100.00
56006;BME280;41888;44.696;10.522;2023-05-24T04:17:03;100209.88;;;16.59;100.00
56006;BME280;41888;44.696;10.522;2023-05-24T04:19:30;100219.22;;;16.39;100.00
56006;BME280;41888;44.696;10.522;2023-05-24T04:21:57;100216.88;;;16.43;100.00
56006;BME280;41888;44.696;10.522;2023-05-24T04:24:23;100219.72;;;16.53;100.00
56006;BME280;41888;44.696;10.522;2023-05-24T04:26:49;100221.81;;;16.51;100.00
56006;BME280;41888;44.696;10.522;2023-05-24T04:29:16;100214.88;;;16.55;100.00
56006;BME280;41888;44.696;10.522;2023-05-24T04:31:43;100215.63;;;16.51;100.00
56006;BME280;41888;44.696;10.522;2023-05-24T04:34:10;100222.25;;;16.60;100.00
56006;BME280;41888;44.696;10.522;2023-05-24T04:36:39;100212.00;;;16.78;100.00
56006;BME280;41888;44.696;10.522;2023-05-24T04:39:06;100214.91;;;16.99;100.00
56006;BME280;41888;44.696;10.522;2023-05-24T04:41:32;100213.25;;;17.19;100.00
56006;BME280;41888;44.696;10.522;2023-05-24T04:44:00;100218.03;;;17.39;100.00
56006;BME280;41888;44.696;10.522;2023-05-24T04:46:27;100221.81;;;17.65;100.00
56006;BME280;41888;44.696;10.522;2023-05-24T04:48:53;100218.91;;;17.77;100.00
56006;BME280;41888;44.696;10.522;2023-05-24T04:51:21;100223.81;;;17.80;100.00
56006;BME280;41888;44.696;10.522;2023-05-24T04:53:47;100220.63;;;17.88;100.00
56006;BME280;41888;44.696;10.522;2023-05-24T04:56:13;100225.38;;;18.07;100.00
56006;BME280;41888;44.696;10.522;2023-05-24T04:58:41;100224.75;;;18.37;100.00
56006;BME280;41888;44.696;10.522;2023-05-24T05:01:08;100228.94;;;18.60;100.00
56006;BME280;41888;44.696;10.522;2023-05-24T05:03:34;100232.75;;;18.69;100.00
56006;BME280;41888;44.696;10.522;2023-05-24T05:06:00;100234.75;;;18.99;100.00
56006;BME280;41888;44.696;10.522;2023-05-24T05:08:26;100239.16;;;19.30;100.00
56006;BME280;41888;44.696;10.522;2023-05-24T05:10:52;100232.50;;;19.73;100.00
56006;BME280;41888;44.696;10.522;2023-05-24T05:13:19;100243.84;;;20.01;100.00
56006;BME280;41888;44.696;10.522;2023-05-24T05:15:45;100249.78;;;20.33;100.00
56006;BME280;41888;44.696;10.522;2023-05-24T05:18:11;100254.78;;;20.80;100.00
56006;BME280;41888;44.696;10.522;2023-05-24T05:20:37;100245.88;;;21.34;100.00
56006;BME280;41888;44.696;10.522;2023-05-24T05:23:03;100246.50;;;22.27;98.33
56006;BME280;41888;44.696;10.522;2023-05-24T05:25:30;100256.41;;;22.66;94.61
56006;BME280;41888;44.696;10.522;2023-05-24T05:27:56;100258.94;;;23.66;88.93
56006;BME280;41888;44.696;10.522;2023-05-24T05:30:22;100257.97;;;24.27;82.50
56006;BME280;41888;44.696;10.522;2023-05-24T05:32:49;100257.97;;;24.27;81.35
56006;BME280;41888;44.696;10.522;2023-05-24T05:35:15;100252.66;;;24.17;80.89
56006;BME280;41888;44.696;10.522;2023-05-24T05:37:41;100251.72;;;24.26;78.97
56006;BME280;41888;44.696;10.522;2023-05-24T05:40:07;100257.78;;;24.78;76.79
56006;BME280;41888;44.696;10.522;2023-05-24T05:42:34;100255.34;;;25.17;74.61
56006;BME280;41888;44.696;10.522;2023-05-24T05:45:00;100266.75;;;25.69;72.40
56006;BME280;41888;44.696;10.522;2023-05-24T05:47:26;100271.56;;;25.72;71.85
56006;BME280;41888;44.696;10.522;2023-05-24T05:49:52;100258.63;;;26.22;69.19
56006;BME280;41888;44.696;10.522;2023-05-24T05:52:18;100264.69;;;26.50;64.24
56006;BME280;41888;44.696;10.522;2023-05-24T05:54:45;100263.53;;;27.56;60.73
56006;BME280;41888;44.696;10.522;2023-05-24T05:57:11;100263.81;;;27.28;62.99
56006;BME280;41888;44.696;10.522;2023-05-24T05:59:37;100259.94;;;26.33;67.63
56006;BME280;41888;44.696;10.522;2023-05-24T06:02:05;100273.09;;;25.87;71.14
56006;BME280;41888;44.696;10.522;2023-05-24T06:04:31;100265.94;;;25.91;71.57
56006;BME280;41888;44.696;10.522;2023-05-24T06:06:57;100267.38;;;25.52;74.10
56006;BME280;41888;44.696;10.522;2023-05-24T06:09:24;100266.78;;;25.78;75.32
56006;BME280;41888;44.696;10.522;2023-05-24T06:11:50;100272.94;;;25.83;76.00
56006;BME280;41888;44.696;10.522;2023-05-24T06:14:16;100270.34;;;25.42;77.67
56006;BME280;41888;44.696;10.522;2023-05-24T06:16:47;100269.59;;;25.50;79.49
56006;BME280;41888;44.696;10.522;2023-05-24T06:19:13;100267.16;;;25.62;79.85
56006;BME280;41888;44.696;10.522;2023-05-24T06:21:40;100273.63;;;25.53;79.01
56006;BME280;41888;44.696;10.522;2023-05-24T06:24:12;100266.78;;;25.78;76.59
56006;BME280;41888;44.696;10.522;2023-05-24T06:26:40;100275.81;;;25.64;76.79
56006;BME280;41888;44.696;10.522;2023-05-24T06:29:06;100270.91;;;25.03;76.13
56006;BME280;41888;44.696;10.522;2023-05-24T06:31:34;100267.13;;;24.86;76.64
56006;BME280;41888;44.696;10.522;2023-05-24T06:34:00;100269.88;;;24.72;78.29
56006;BME280;41888;44.696;10.522;2023-05-24T06:36:26;100272.50;;;25.04;74.64
56006;BME280;41888;44.696;10.522;2023-05-24T06:38:53;100275.59;;;25.25;74.74
56006;BME280;41888;44.696;10.522;2023-05-24T06:41:19;100269.59;;;25.01;75.98
56006;BME280;41888;44.696;10.522;2023-05-24T06:43:46;100277.41;;;25.30;75.05
56006;BME280;41888;44.696;10.522;2023-05-24T06:46:12;100272.69;;;25.21;75.66
56006;BME280;41888;44.696;10.522;2023-05-24T06:48:38;100285.25;;;25.45;77.37
56006;BME280;41888;44.696;10.522;2023-05-24T06:51:05;100275.91;;;25.37;76.12
56006;BME280;41888;44.696;10.522;2023-05-24T06:53:31;100281.59;;;25.49;76.98
56006;BME280;41888;44.696;10.522;2023-05-24T06:55:57;100283.56;;;25.35;77.66
56006;BME280;41888;44.696;10.522;2023-05-24T06:58:23;100284.28;;;25.27;77.88
56006;BME280;41888;44.696;10.522;2023-05-24T07:00:49;100282.91;;;25.16;78.45
56006;BME280;41888;44.696;10.522;2023-05-24T07:03:16;100288.59;;;25.28;78.57
56006;BME280;41888;44.696;10.522;2023-05-24T07:05:42;100289.84;;;25.22;77.35
56006;BME280;41888;44.696;10.522;2023-05-24T07:08:08;100288.78;;;25.45;75.06
56006;BME280;41888;44.696;10.522;2023-05-24T07:10:34;100294.78;;;25.70;73.52
56006;BME280;41888;44.696;10.522;2023-05-24T07:13:00;100287.72;;;25.55;76.39
56006;BME280;41888;44.696;10.522;2023-05-24T07:15:26;100300.84;;;25.67;75.57
56006;BME280;41888;44.696;10.522;2023-05-24T07:17:53;100304.09;;;25.69;73.12
56006;BME280;41888;44.696;10.522;2023-05-24T07:20:19;100292.56;;;25.22;72.19
56006;BME280;41888;44.696;10.522;2023-05-24T07:22:45;100298.28;;;25.34;73.05
56006;BME280;41888;44.696;10.522;2023-05-24T07:25:11;100299.66;;;25.45;70.95
56006;BME280;41888;44.696;10.522;2023-05-24T07:27:37;100297.13;;;25.62;70.16
56006;BME280;41888;44.696;10.522;2023-05-24T07:30:04;100303.72;;;25.48;70.24
56006;BME280;41888;44.696;10.522;2023-05-24T07:32:30;100294.16;;;25.37;72.74
56006;BME280;41888;44.696;10.522;2023-05-24T07:34:58;100306.81;;;25.55;71.35
56006;BME280;41888;44.696;10.522;2023-05-24T07:37:25;100303.97;;;25.74;72.37
56006;BME280;41888;44.696;10.522;2023-05-24T07:39:51;100303.09;;;25.51;72.06
56006;BME280;41888;44.696;10.522;2023-05-24T07:42:18;100312.06;;;25.87;69.49
56006;BME280;41888;44.696;10.522;2023-05-24T07:44:44;100311.66;;;25.94;69.31
56006;BME280;41888;44.696;10.522;2023-05-24T07:47:10;100303.72;;;26.06;66.00
56006;BME280;41888;44.696;10.522;2023-05-24T07:49:36;100295.78;;;25.74;64.67
56006;BME280;41888;44.696;10.522;2023-05-24T07:52:03;100301.38;;;25.91;64.63
56006;BME280;41888;44.696;10.522;2023-05-24T07:54:31;100297.34;;;25.52;69.73
56006;BME280;41888;44.696;10.522;2023-05-24T07:56:57;100298.09;;;25.17;69.70
56006;BME280;41888;44.696;10.522;2023-05-24T07:59:23;100296.00;;;25.00;71.57
56006;BME280;41888;44.696;10.522;2023-05-24T08:01:49;100297.38;;;25.25;74.29
56006;BME280;41888;44.696;10.522;2023-05-24T08:04:15;100294.59;;;25.03;72.21
56006;BME280;41888;44.696;10.522;2023-05-24T08:06:42;100298.53;;;24.97;73.07
56006;BME280;41888;44.696;10.522;2023-05-24T08:09:08;100290.63;;;25.22;72.83
56006;BME280;41888;44.696;10.522;2023-05-24T08:11:35;100300.75;;;25.22;72.32
56006;BME280;41888;44.696;10.522;2023-05-24T08:14:01;100298.00;;;25.22;72.33
56006;BME280;41888;44.696;10.522;2023-05-24T08:16:27;100303.13;;;25.37;71.78
56006;BME280;41888;44.696;10.522;2023-05-24T08:18:53;100305.88;;;24.96;70.57
56006;BME280;41888;44.696;10.522;2023-05-24T08:21:20;100297.13;;;24.99;73.69
56006;BME280;41888;44.696;10.522;2023-05-24T08:23:46;100297.88;;;25.41;71.70
56006;BME280;41888;44.696;10.522;2023-05-24T08:26:12;100294.47;;;25.21;72.13
56006;BME280;41888;44.696;10.522;2023-05-24T08:28:38;100295.69;;;25.02;71.81
56006;BME280;41888;44.696;10.522;2023-05-24T08:31:04;100289.16;;;25.16;71.05
56006;BME280;41888;44.696;10.522;2023-05-24T08:33:32;100286.59;;;25.06;72.60
56006;BME280;41888;44.696;10.522;2023-05-24T08:35:58;100289.00;;;25.35;73.19
56006;BME280;41888;44.696;10.522;2023-05-24T08:38:24;100290.75;;;25.67;71.79
56006;BME280;41888;44.696;10.522;2023-05-24T08:40:50;100300.84;;;25.67;68.39
56006;BME280;41888;44.696;10.522;2023-05-24T08:43:17;100295.34;;;25.58;69.68
56006;BME280;41888;44.696;10.522;2023-05-24T08:45:44;100293.22;;;25.41;69.98
56006;BME280;41888;44.696;10.522;2023-05-24T08:48:11;100290.97;;;25.43;71.32
56006;BME280;41888;44.696;10.522;2023-05-24T08:50:38;100295.41;;;25.67;71.98
56006;BME280;41888;44.696;10.522;2023-05-24T08:53:06;100302.03;;;25.74;69.79
56006;BME280;41888;44.696;10.522;2023-05-24T08:55:34;100303.06;;;25.64;67.35
56006;BME280;41888;44.696;10.522;2023-05-24T08:58:00;100293.09;;;25.60;67.54
56006;BME280;41888;44.696;10.522;2023-05-24T09:00:27;100289.09;;;25.80;71.12
56006;BME280;41888;44.696;10.522;2023-05-24T09:02:53;100287.63;;;25.96;69.41
56006;BME280;41888;44.696;10.522;2023-05-24T09:05:21;100290.69;;;26.03;68.04
56006;BME280;41888;44.696;10.522;2023-05-24T09:07:48;100286.97;;;25.77;70.41
56006;BME280;41888;44.696;10.522;2023-05-24T09:10:19;100280.97;;;25.88;72.96
56006;BME280;41888;44.696;10.522;2023-05-24T09:12:54;100277.63;;;26.14;71.21
56006;BME280;41888;44.696;10.522;2023-05-24T09:15:20;100280.44;;;26.22;72.11
56006;BME280;41888;44.696;10.522;2023-05-24T09:17:47;100275.69;;;26.36;71.28
56006;BME280;41888;44.696;10.522;2023-05-24T09:20:13;100277.03;;;26.47;69.28
56006;BME280;41888;44.696;10.522;2023-05-24T09:22:41;100285.41;;;26.51;68.63
56006;BME280;41888;44.696;10.522;2023-05-24T09:25:09;100286.38;;;26.24;69.48
56006;BME280;41888;44.696;10.522;2023-05-24T09:27:37;100280.66;;;26.34;68.25
56006;BME280;41888;44.696;10.522;2023-05-24T09:30:10;100279.03;;;26.33;68.24
56006;BME280;41888;44.696;10.522;2023-05-24T09:32:37;100274.41;;;26.12;68.22
56006;BME280;41888;44.696;10.522;2023-05-24T09:35:07;100276.44;;;26.28;69.65
56006;BME280;41888;44.696;10.522;2023-05-24T09:37:36;100274.22;;;26.08;70.46
56006;BME280;41888;44.696;10.522;2023-05-24T09:40:04;100271.00;;;26.28;71.22
56006;BME280;41888;44.696;10.522;2023-05-24T09:42:31;100273.34;;;26.21;70.43
56006;BME280;41888;44.696;10.522;2023-05-24T09:45:05;100267.81;;;26.35;69.19
56006;BME280;41888;44.696;10.522;2023-05-24T09:47:38;100266.53;;;26.32;69.27
56006;BME280;41888;44.696;10.522;2023-05-24T09:50:15;100259.88;;;26.47;68.19
56006;BME280;41888;44.696;10.522;2023-05-24T09:52:45;100261.28;;;26.44;69.76
56006;BME280;41888;44.696;10.522;2023-05-24T09:55:18;100267.41;;;25.97;68.80
56006;BME280;41888;44.696;10.522;2023-05-24T09:57:50;100256.44;;;26.11;68.71
56006;BME280;41888;44.696;10.522;2023-05-24T10:00:22;100252.06;;;26.01;67.10
56006;BME280;41888;44.696;10.522;2023-05-24T10:03:00;100250.72;;;26.21;66.90
56006;BME280;41888;44.696;10.522;2023-05-24T10:05:32;100253.03;;;26.05;64.50
56006;BME280;41888;44.696;10.522;2023-05-24T10:07:59;100249.38;;;26.10;65.58
56006;BME280;41888;44.696;10.522;2023-05-24T10:10:32;100261.91;;;26.33;63.42
56006;BME280;41888;44.696;10.522;2023-05-24T10:12:59;100253.72;;;26.33;63.53
56006;BME280;41888;44.696;10.522;2023-05-24T10:15:27;100246.63;;;26.32;63.64
56006;BME280;41888;44.696;10.522;2023-05-24T10:17:54;100239.75;;;26.34;64.44
56006;BME280;41888;44.696;10.522;2023-05-24T10:20:21;100238.88;;;26.56;66.38
56006;BME280;41888;44.696;10.522;2023-05-24T10:22:55;100238.94;;;26.82;66.56
56006;BME280;41888;44.696;10.522;2023-05-24T10:25:23;100232.81;;;26.68;65.06
56006;BME280;41888;44.696;10.522;2023-05-24T10:27:59;100235.75;;;26.80;66.43
56006;BME280;41888;44.696;10.522;2023-05-24T10:33:16;100224.47;;;26.25;66.79
56006;BME280;41888;44.696;10.522;2023-05-24T10:35:44;100227.59;;;26.49;67.94
56006;BME280;41888;44.696;10.522;2023-05-24T10:38:11;100227.28;;;26.51;66.56
56006;BME280;41888;44.696;10.522;2023-05-24T10:40:43;100221.84;;;26.90;66.73
56006;BME280;41888;44.696;10.522;2023-05-24T10:43:09;100212.03;;;26.89;63.63
56006;BME280;41888;44.696;10.522;2023-05-24T10:45:38;100218.56;;;26.79;63.44
56006;BME280;41888;44.696;10.522;2023-05-24T10:50:40;100201.38;;;26.79;61.85
56006;BME280;41888;44.696;10.522;2023-05-24T10:53:19;100197.34;;;26.68;63.45
56006;BME280;41888;44.696;10.522;2023-05-24T10:55:59;100202.06;;;26.93;64.39
56006;BME280;41888;44.696;10.522;2023-05-24T10:58:56;100193.84;;;26.84;68.49
56006;BME280;41888;44.696;10.522;2023-05-24T11:01:28;100194.66;;;26.85;69.62
56006;BME280;41888;44.696;10.522;2023-05-24T11:04:14;100192.59;;;27.08;72.02
56006;BME280;41888;44.696;10.522;2023-05-24T11:07:09;100189.91;;;27.34;67.08
56006;BME280;41888;44.696;10.522;2023-05-24T11:09:39;100184.09;;;27.09;70.27
56006;BME280;41888;44.696;10.522;2023-05-24T11:12:18;100194.97;;;26.83;65.58
56006;BME280;41888;44.696;10.522;2023-05-24T11:14:51;100186.03;;;27.00;64.92
56006;BME280;41888;44.696;10.522;2023-05-24T11:17:22;100189.72;;;27.13;66.41
56006;BME280;41888;44.696;10.522;2023-05-24T11:19:53;100183.47;;;26.95;62.92
56006;BME280;41888;44.696;10.522;2023-05-24T11:22:22;100187.97;;;26.91;63.83
56006;BME280;41888;44.696;10.522;2023-05-24T11:24:50;100192.13;;;27.14;62.34
56006;BME280;41888;44.696;10.522;2023-05-24T11:27:17;100190.72;;;27.51;60.55
56006;BME280;41888;44.696;10.522;2023-05-24T11:29:44;100194.38;;;27.81;58.76
56006;BME280;41888;44.696;10.522;2023-05-24T11:32:15;100197.59;;;27.83;56.86
56006;BME280;41888;44.696;10.522;2023-05-24T11:34:43;100187.38;;;28.09;56.13
56006;BME280;41888;44.696;10.522;2023-05-24T11:37:11;100189.94;;;28.23;58.15
56006;BME280;41888;44.696;10.522;2023-05-24T11:39:37;100180.75;;;28.28;59.85
56006;BME280;41888;44.696;10.522;2023-05-24T11:42:04;100182.06;;;28.51;61.62
56006;BME280;41888;44.696;10.522;2023-05-24T11:44:34;100187.78;;;28.37;62.01
56006;BME280;41888;44.696;10.522;2023-05-24T11:47:05;100181.81;;;28.44;62.23
56006;BME280;41888;44.696;10.522;2023-05-24T11:49:31;100188.97;;;28.57;62.34
56006;BME280;41888;44.696;10.522;2023-05-24T11:51:58;100193.97;;;28.55;60.41
56006;BME280;41888;44.696;10.522;2023-05-24T11:54:27;100187.09;;;28.49;61.56
56006;BME280;41888;44.696;10.522;2023-05-24T11:56:54;100189.94;;;28.90;60.78
56006;BME280;41888;44.696;10.522;2023-05-24T11:59:24;100180.31;;;28.55;59.48
56006;BME280;41888;44.696;10.522;2023-05-24T12:02:05;100191.16;;;28.72;59.81
56006;BME280;41888;44.696;10.522;2023-05-24T12:04:32;100178.38;;;29.06;58.33
56006;BME280;41888;44.696;10.522;2023-05-24T12:06:59;100169.91;;;28.69;61.14
56006;BME280;41888;44.696;10.522;2023-05-24T12:09:26;100161.25;;;28.88;62.60
56006;BME280;41888;44.696;10.522;2023-05-24T12:11:54;100154.38;;;28.52;59.82
56006;BME280;41888;44.696;10.522;2023-05-24T12:16:54;100149.84;;;28.86;61.44
56006;BME280;41888;44.696;10.522;2023-05-24T12:19:22;100162.94;;;29.01;59.90
56006;BME280;41888;44.696;10.522;2023-05-24T12:21:56;100159.28;;;28.97;59.21
56006;BME280;41888;44.696;10.522;2023-05-24T12:24:23;100135.28;;;28.44;62.19
56006;BME280;41888;44.696;10.522;2023-05-24T12:26:50;100140.66;;;28.32;62.90
56006;BME280;41888;44.696;10.522;2023-05-24T12:29:18;100138.94;;;28.19;63.27
56006;BME280;41888;44.696;10.522;2023-05-24T12:31:47;100130.09;;;28.22;60.82
56006;BME280;41888;44.696;10.522;2023-05-24T12:34:24;100131.50;;;27.72;64.55
56006;BME280;41888;44.696;10.522;2023-05-24T12:36:50;100125.78;;;27.57;64.67
56006;BME280;41888;44.696;10.522;2023-05-24T12:39:27;100127.56;;;27.99;64.33
56006;BME280;41888;44.696;10.522;2023-05-24T12:41:58;100123.75;;;27.92;63.81
56006;BME280;41888;44.696;10.522;2023-05-24T12:44:32;100129.50;;;27.26;60.50
56006;BME280;41888;44.696;10.522;2023-05-24T12:46:59;100136.09;;;26.91;59.55
56006;BME280;41888;44.696;10.522;2023-05-24T12:49:26;100139.03;;;26.46;61.95
56006;BME280;41888;44.696;10.522;2023-05-24T12:51:54;100138.09;;;26.12;59.29
56006;BME280;41888;44.696;10.522;2023-05-24T12:54:25;100139.91;;;25.94;56.74
56006;BME280;41888;44.696;10.522;2023-05-24T12:56:52;100140.63;;;26.08;59.45
56006;BME280;41888;44.696;10.522;2023-05-24T12:59:19;100147.16;;;26.29;56.31
56006;BME280;41888;44.696;10.522;2023-05-24T13:01:46;100140.31;;;26.18;53.25
56006;BME280;41888;44.696;10.522;2023-05-24T13:04:17;100136.09;;;25.95;54.15
56006;BME280;41888;44.696;10.522;2023-05-24T13:06:43;100131.31;;;25.70;55.95